sensor_id;sensor_type;location;lat;lon;timestamp;P1;durP1;ratioP1;P2;durP2;ratioP2
53145;SDS011;39042;53.150;5.898;2023-05-27T00:00:07;23.67;;;5.40;;
53145;SDS011;39042;53.150;5.898;2023-05-27T00:02:34;20.83;;;5.22;;
53145;SDS011;39042;53.150;5.898;2023-05-27T00:05:00;13.75;;;4.20;;
53145;SDS011;39042;53.150;5.898;2023-05-27T00:07:27;17.30;;;6.05;;
53145;SDS011;39042;53.150;5.898;2023-05-27T00:09:53;22.02;;;6.43;;
53145;SDS011;39042;53.150;5.898;2023-05-27T00:12:19;20.23;;;5.63;;
53145;SDS011;39042;53.150;5.898;2023-05-27T00:14:45;22.73;;;5.63;;
53145;SDS011;39042;53.150;5.898;2023-05-27T00:17:11;19.20;;;5.50;;
53145;SDS011;39042;53.150;5.898;2023-05-27T00:19:40;21.75;;;5.45;;
53145;SDS011;39042;53.150;5.898;2023-05-27T00:22:07;20.23;;;5.20;;
53145;SDS011;39042;53.150;5.898;2023-05-27T00:24:36;21.10;;;6.60;;
53145;SDS011;39042;53.150;5.898;2023-05-27T00:27:04;16.17;;;5.35;;
53145;SDS011;39042;53.150;5.898;2023-05-27T00:29:35;18.67;;;5.25;;
53145;SDS011;39042;53.150;5.898;2023-05-27T00:32:01;15.60;;;5.38;;
53145;SDS011;39042;53.150;5.898;2023-05-27T00:34:30;19.90;;;4.97;;
53145;SDS011;39042;53.150;5.898;2023-05-27T00:36:56;23.65;;;5.50;;
53145;SDS011;39042;53.150;5.898;2023-05-27T00:39:22;16.23;;;5.33;;
53145;SDS011;39042;53.150;5.898;2023-05-27T00:41:49;16.92;;;5.65;;
53145;SDS011;39042;53.150;5.898;2023-05-27T00:44:16;22.60;;;6.22;;
53145;SDS011;39042;53.150;5.898;2023-05-27T00:46:43;19.02;;;5.40;;
53145;SDS011;39042;53.150;5.898;2023-05-27T00:49:10;14.75;;;5.47;;
53145;SDS011;39042;53.150;5.898;2023-05-27T00:51:37;21.67;;;5.55;;
53145;SDS011;39042;53.150;5.898;2023-05-27T00:54:03;26.40;;;5.95;;
53145;SDS011;39042;53.150;5.898;2023-05-27T00:56:30;26.02;;;6.25;;
53145;SDS011;39042;53.150;5.898;2023-05-27T00:58:56;18.52;;;5.20;;
53145;SDS011;39042;53.150;5.898;2023-05-27T01:01:22;21.27;;;6.47;;
53145;SDS011;39042;53.150;5.898;2023-05-27T01:03:51;21.63;;;5.68;;
53145;SDS011;39042;53.150;5.898;2023-05-27T01:09:20;24.80;;;5.72;;
53145;SDS011;39042;53.150;5.898;2023-05-27T01:14:27;21.58;;;5.72;;
53145;SDS011;39042;53.150;5.898;2023-05-27T01:16:57;20.98;;;5.55;;
53145;SDS011;39042;53.150;5.898;2023-05-27T01:19:30;23.95;;;5.90;;
53145;SDS011;39042;53.150;5.898;2023-05-27T01:22:01;23.88;;;6.00;;
53145;SDS011;39042;53.150;5.898;2023-05-27T01:24:30;18.40;;;4.93;;
53145;SDS011;39042;53.150;5.898;2023-05-27T01:26:56;23.02;;;5.78;;
53145;SDS011;39042;53.150;5.898;2023-05-27T01:29:22;19.30;;;5.23;;
53145;SDS011;39042;53.150;5.898;2023-05-27T01:34:34;22.23;;;5.13;;
53145;SDS011;39042;53.150;5.898;2023-05-27T01:37:06;23.23;;;5.28;;
53145;SDS011;39042;53.150;5.898;2023-05-27T01:39:37;17.20;;;4.68;;
53145;SDS011;39042;53.150;5.898;2023-05-27T01:42:04;19.55;;;5.45;;
53145;SDS011;39042;53.150;5.898;2023-05-27T01:47:00;18.30;;;5.10;;
53145;SDS011;39042;53.150;5.898;2023-05-27T01:49:28;18.17;;;6.50;;
53145;SDS011;39042;53.150;5.898;2023-05-27T01:51:55;21.52;;;6.15;;
53145;SDS011;39042;53.150;5.898;2023-05-27T01:54:21;21.60;;;5.03;;
53145;SDS011;39042;53.150;5.898;2023-05-27T01:56:47;15.63;;;4.93;;
53145;SDS011;39042;53.150;5.898;2023-05-27T01:59:13;17.63;;;4.53;;
53145;SDS011;39042;53.150;5.898;2023-05-27T02:01:41;17.27;;;5.30;;
53145;SDS011;39042;53.150;5.898;2023-05-27T02:04:07;21.65;;;5.68;;
53145;SDS011;39042;53.150;5.898;2023-05-27T02:06:34;18.75;;;4.97;;
53145;SDS011;39042;53.150;5.898;2023-05-27T02:09:01;19.98;;;5.50;;
53145;SDS011;39042;53.150;5.898;2023-05-27T02:11:28;19.25;;;5.03;;
53145;SDS011;39042;53.150;5.898;2023-05-27T02:13:54;15.83;;;3.80;;
53145;SDS011;39042;53.150;5.898;2023-05-27T02:16:21;17.17;;;4.75;;
53145;SDS011;39042;53.150;5.898;2023-05-27T02:18:48;20.65;;;5.32;;
53145;SDS011;39042;53.150;5.898;2023-05-27T02:21:16;18.42;;;5.22;;
53145;SDS011;39042;53.150;5.898;2023-05-27T02:23:43;23.48;;;5.95;;
53145;SDS011;39042;53.150;5.898;2023-05-27T02:26:09;22.30;;;5.70;;
53145;SDS011;39042;53.150;5.898;2023-05-27T02:28:35;16.50;;;4.90;;
53145;SDS011;39042;53.150;5.898;2023-05-27T02:31:01;18.30;;;4.23;;
53145;SDS011;39042;53.150;5.898;2023-05-27T02:35:53;13.55;;;5.10;;
53145;SDS011;39042;53.150;5.898;2023-05-27T02:38:19;20.60;;;5.37;;
53145;SDS011;39042;53.150;5.898;2023-05-27T02:43:12;18.08;;;4.90;;
53145;SDS011;39042;53.150;5.898;2023-05-27T02:45:38;10.30;;;2.97;;
53145;SDS011;39042;53.150;5.898;2023-05-27T02:48:05;17.02;;;4.30;;
53145;SDS011;39042;53.150;5.898;2023-05-27T02:50:31;13.70;;;4.30;;
53145;SDS011;39042;53.150;5.898;2023-05-27T02:52:57;17.40;;;4.00;;
53145;SDS011;39042;53.150;5.898;2023-05-27T02:55:23;13.57;;;3.73;;
53145;SDS011;39042;53.150;5.898;2023-05-27T02:57:48;15.37;;;4.83;;
53145;SDS011;39042;53.150;5.898;2023-05-27T03:00:15;16.67;;;4.53;;
53145;SDS011;39042;53.150;5.898;2023-05-27T03:02:42;10.75;;;4.10;;
53145;SDS011;39042;53.150;5.898;2023-05-27T03:05:08;15.88;;;4.57;;
53145;SDS011;39042;53.150;5.898;2023-05-27T03:07:34;17.50;;;5.60;;
53145;SDS011;39042;53.150;5.898;2023-05-27T03:10:00;15.38;;;4.78;;
53145;SDS011;39042;53.150;5.898;2023-05-27T03:12:26;16.30;;;4.77;;
53145;SDS011;39042;53.150;5.898;2023-05-27T03:14:52;12.13;;;3.60;;
53145;SDS011;39042;53.150;5.898;2023-05-27T03:17:18;12.97;;;3.73;;
53145;SDS011;39042;53.150;5.898;2023-05-27T03:19:46;16.02;;;4.45;;
53145;SDS011;39042;53.150;5.898;2023-05-27T03:22:12;17.25;;;4.30;;
53145;SDS011;39042;53.150;5.898;2023-05-27T03:24:39;18.10;;;5.07;;
53145;SDS011;39042;53.150;5.898;2023-05-27T03:27:06;18.33;;;4.68;;
53145;SDS011;39042;53.150;5.898;2023-05-27T03:29:34;16.23;;;4.93;;
53145;SDS011;39042;53.150;5.898;2023-05-27T03:32:01;17.13;;;4.60;;
53145;SDS011;39042;53.150;5.898;2023-05-27T03:34:28;19.88;;;4.32;;
53145;SDS011;39042;53.150;5.898;2023-05-27T03:36:55;18.63;;;5.30;;
53145;SDS011;39042;53.150;5.898;2023-05-27T03:39:29;15.20;;;4.07;;
53145;SDS011;39042;53.150;5.898;2023-05-27T03:41:57;10.90;;;4.45;;
53145;SDS011;39042;53.150;5.898;2023-05-27T03:44:23;14.30;;;4.63;;
53145;SDS011;39042;53.150;5.898;2023-05-27T03:46:49;12.57;;;4.00;;
53145;SDS011;39042;53.150;5.898;2023-05-27T03:49:15;25.43;;;5.27;;
53145;SDS011;39042;53.150;5.898;2023-05-27T03:51:41;18.42;;;5.18;;
53145;SDS011;39042;53.150;5.898;2023-05-27T03:54:07;13.80;;;4.13;;
53145;SDS011;39042;53.150;5.898;2023-05-27T03:56:33;19.63;;;4.83;;
53145;SDS011;39042;53.150;5.898;2023-05-27T03:59:00;20.63;;;4.85;;
53145;SDS011;39042;53.150;5.898;2023-05-27T04:01:27;23.30;;;5.82;;
53145;SDS011;39042;53.150;5.898;2023-05-27T04:03:53;15.90;;;5.60;;
53145;SDS011;39042;53.150;5.898;2023-05-27T04:06:19;16.97;;;5.93;;
53145;SDS011;39042;53.150;5.898;2023-05-27T04:08:45;15.27;;;4.40;;
53145;SDS011;39042;53.150;5.898;2023-05-27T04:11:11;21.07;;;4.83;;
53145;SDS011;39042;53.150;5.898;2023-05-27T04:13:38;18.00;;;5.20;;
53145;SDS011;39042;53.150;5.898;2023-05-27T04:16:05;18.05;;;5.22;;
53145;SDS011;39042;53.150;5.898;2023-05-27T04:18:32;23.92;;;4.95;;
53145;SDS011;39042;53.150;5.898;2023-05-27T04:20:58;24.92;;;5.13;;
53145;SDS011;39042;53.150;5.898;2023-05-27T04:23:26;21.58;;;5.40;;
53145;SDS011;39042;53.150;5.898;2023-05-27T04:25:51;19.20;;;5.40;;
53145;SDS011;39042;53.150;5.898;2023-05-27T04:28:19;18.17;;;4.20;;
53145;SDS011;39042;53.150;5.898;2023-05-27T04:30:46;23.48;;;4.80;;
53145;SDS011;39042;53.150;5.898;2023-05-27T04:33:22;24.55;;;4.35;;
53145;SDS011;39042;53.150;5.898;2023-05-27T04:35:48;22.63;;;5.47;;
53145;SDS011;39042;53.150;5.898;2023-05-27T04:38:15;19.08;;;5.28;;
53145;SDS011;39042;53.150;5.898;2023-05-27T04:41:00;21.08;;;4.70;;
53145;SDS011;39042;53.150;5.898;2023-05-27T04:43:59;21.88;;;5.20;;
53145;SDS011;39042;53.150;5.898;2023-05-27T04:46:31;19.05;;;4.93;;
53145;SDS011;39042;53.150;5.898;2023-05-27T04:48:58;21.63;;;5.80;;
53145;SDS011;39042;53.150;5.898;2023-05-27T04:51:24;15.20;;;4.43;;
53145;SDS011;39042;53.150;5.898;2023-05-27T04:53:50;18.98;;;5.35;;
53145;SDS011;39042;53.150;5.898;2023-05-27T04:56:19;19.05;;;5.50;;
53145;SDS011;39042;53.150;5.898;2023-05-27T04:58:45;21.58;;;5.38;;
53145;SDS011;39042;53.150;5.898;2023-05-27T05:01:18;21.25;;;4.88;;
53145;SDS011;39042;53.150;5.898;2023-05-27T05:03:53;20.73;;;4.97;;
53145;SDS011;39042;53.150;5.898;2023-05-27T05:06:38;18.88;;;4.90;;
53145;SDS011;39042;53.150;5.898;2023-05-27T05:09:05;14.88;;;4.47;;
53145;SDS011;39042;53.150;5.898;2023-05-27T05:11:31;13.07;;;4.38;;
53145;SDS011;39042;53.150;5.898;2023-05-27T05:13:57;15.47;;;4.10;;
53145;SDS011;39042;53.150;5.898;2023-05-27T05:16:23;17.13;;;4.10;;
53145;SDS011;39042;53.150;5.898;2023-05-27T05:18:50;18.65;;;4.32;;
53145;SDS011;39042;53.150;5.898;2023-05-27T05:23:43;15.73;;;4.25;;
53145;SDS011;39042;53.150;5.898;2023-05-27T05:26:09;19.60;;;4.53;;
53145;SDS011;39042;53.150;5.898;2023-05-27T05:28:39;16.60;;;4.65;;
53145;SDS011;39042;53.150;5.898;2023-05-27T05:31:06;14.05;;;4.63;;
53145;SDS011;39042;53.150;5.898;2023-05-27T05:33:33;13.45;;;4.50;;
53145;SDS011;39042;53.150;5.898;2023-05-27T05:35:58;17.02;;;3.90;;
53145;SDS011;39042;53.150;5.898;2023-05-27T05:38:33;18.08;;;3.85;;
53145;SDS011;39042;53.150;5.898;2023-05-27T05:40:59;12.13;;;3.33;;
53145;SDS011;39042;53.150;5.898;2023-05-27T05:43:25;13.88;;;3.67;;
53145;SDS011;39042;53.150;5.898;2023-05-27T05:45:52;17.70;;;3.95;;
53145;SDS011;39042;53.150;5.898;2023-05-27T05:48:19;16.05;;;4.32;;
53145;SDS011;39042;53.150;5.898;2023-05-27T05:50:45;10.85;;;2.78;;
53145;SDS011;39042;53.150;5.898;2023-05-27T05:53:11;15.43;;;3.57;;
53145;SDS011;39042;53.150;5.898;2023-05-27T05:55:37;17.93;;;4.50;;
53145;SDS011;39042;53.150;5.898;2023-05-27T05:58:03;13.15;;;4.35;;
53145;SDS011;39042;53.150;5.898;2023-05-27T06:00:30;16.15;;;4.35;;
53145;SDS011;39042;53.150;5.898;2023-05-27T06:03:17;20.42;;;6.68;;
53145;SDS011;39042;53.150;5.898;2023-05-27T06:05:47;18.38;;;5.18;;
53145;SDS011;39042;53.150;5.898;2023-05-27T06:08:13;16.23;;;3.33;;
53145;SDS011;39042;53.150;5.898;2023-05-27T06:10:44;17.40;;;3.97;;
53145;SDS011;39042;53.150;5.898;2023-05-27T06:13:10;8.95;;;2.33;;
53145;SDS011;39042;53.150;5.898;2023-05-27T06:18:06;13.43;;;3.30;;
53145;SDS011;39042;53.150;5.898;2023-05-27T06:20:32;17.07;;;3.30;;
53145;SDS011;39042;53.150;5.898;2023-05-27T06:22:58;16.08;;;3.28;;
53145;SDS011;39042;53.150;5.898;2023-05-27T06:25:52;14.50;;;2.75;;
53145;SDS011;39042;53.150;5.898;2023-05-27T06:28:19;11.82;;;2.72;;
53145;SDS011;39042;53.150;5.898;2023-05-27T06:30:45;15.00;;;3.47;;
53145;SDS011;39042;53.150;5.898;2023-05-27T06:35:38;11.65;;;2.78;;
53145;SDS011;39042;53.150;5.898;2023-05-27T06:38:04;11.45;;;2.40;;
53145;SDS011;39042;53.150;5.898;2023-05-27T06:40:30;13.98;;;2.95;;
53145;SDS011;39042;53.150;5.898;2023-05-27T06:42:57;15.45;;;2.90;;
53145;SDS011;39042;53.150;5.898;2023-05-27T06:45:46;14.23;;;2.97;;
53145;SDS011;39042;53.150;5.898;2023-05-27T06:48:24;11.23;;;3.28;;
53145;SDS011;39042;53.150;5.898;2023-05-27T06:50:50;12.45;;;3.42;;
53145;SDS011;39042;53.150;5.898;2023-05-27T06:53:16;13.52;;;2.70;;
53145;SDS011;39042;53.150;5.898;2023-05-27T06:55:55;13.00;;;2.58;;
53145;SDS011;39042;53.150;5.898;2023-05-27T06:58:40;15.00;;;2.55;;
53145;SDS011;39042;53.150;5.898;2023-05-27T07:01:10;16.40;;;3.28;;
53145;SDS011;39042;53.150;5.898;2023-05-27T07:03:46;15.40;;;3.22;;
53145;SDS011;39042;53.150;5.898;2023-05-27T07:06:16;16.20;;;3.17;;
53145;SDS011;39042;53.150;5.898;2023-05-27T07:08:46;12.70;;;3.22;;
53145;SDS011;39042;53.150;5.898;2023-05-27T07:11:33;14.13;;;3.00;;
53145;SDS011;39042;53.150;5.898;2023-05-27T07:14:03;15.10;;;2.67;;
53145;SDS011;39042;53.150;5.898;2023-05-27T07:16:32;13.65;;;2.78;;
53145;SDS011;39042;53.150;5.898;2023-05-27T07:18:58;15.85;;;3.28;;
53145;SDS011;39042;53.150;5.898;2023-05-27T07:21:29;15.02;;;3.50;;
53145;SDS011;39042;53.150;5.898;2023-05-27T07:23:55;15.80;;;2.80;;
53145;SDS011;39042;53.150;5.898;2023-05-27T07:26:31;15.50;;;2.60;;
53145;SDS011;39042;53.150;5.898;2023-05-27T07:28:58;13.88;;;3.38;;
53145;SDS011;39042;53.150;5.898;2023-05-27T07:31:51;13.15;;;2.90;;
53145;SDS011;39042;53.150;5.898;2023-05-27T07:34:21;14.35;;;2.92;;
53145;SDS011;39042;53.150;5.898;2023-05-27T07:36:47;15.83;;;2.70;;
53145;SDS011;39042;53.150;5.898;2023-05-27T07:39:13;14.48;;;2.70;;
53145;SDS011;39042;53.150;5.898;2023-05-27T07:41:39;10.43;;;2.55;;
53145;SDS011;39042;53.150;5.898;2023-05-27T07:44:05;10.05;;;2.88;;
53145;SDS011;39042;53.150;5.898;2023-05-27T07:46:31;15.90;;;3.20;;
53145;SDS011;39042;53.150;5.898;2023-05-27T07:48:59;14.00;;;3.00;;
53145;SDS011;39042;53.150;5.898;2023-05-27T07:51:26;13.43;;;3.33;;
53145;SDS011;39042;53.150;5.898;2023-05-27T07:53:52;16.15;;;2.92;;
53145;SDS011;39042;53.150;5.898;2023-05-27T07:56:19;15.68;;;2.83;;
53145;SDS011;39042;53.150;5.898;2023-05-27T07:58:45;12.60;;;2.90;;
53145;SDS011;39042;53.150;5.898;2023-05-27T08:01:12;21.20;;;3.17;;
53145;SDS011;39042;53.150;5.898;2023-05-27T08:03:45;10.15;;;2.67;;
53145;SDS011;39042;53.150;5.898;2023-05-27T08:06:31;14.10;;;2.92;;
53145;SDS011;39042;53.150;5.898;2023-05-27T08:09:19;11.25;;;2.70;;
53145;SDS011;39042;53.150;5.898;2023-05-27T08:12:03;16.52;;;3.40;;
53145;SDS011;39042;53.150;5.898;2023-05-27T08:14:53;14.57;;;3.05;;
53145;SDS011;39042;53.150;5.898;2023-05-27T08:17:38;10.48;;;2.95;;
53145;SDS011;39042;53.150;5.898;2023-05-27T08:20:27;15.95;;;3.28;;
53145;SDS011;39042;53.150;5.898;2023-05-27T08:23:07;11.98;;;3.53;;
53145;SDS011;39042;53.150;5.898;2023-05-27T08:25:46;14.05;;;4.15;;
53145;SDS011;39042;53.150;5.898;2023-05-27T08:28:42;15.15;;;3.35;;
53145;SDS011;39042;53.150;5.898;2023-05-27T08:31:33;12.60;;;3.60;;
53145;SDS011;39042;53.150;5.898;2023-05-27T08:34:01;10.35;;;2.90;;
53145;SDS011;39042;53.150;5.898;2023-05-27T08:36:27;15.73;;;4.20;;
53145;SDS011;39042;53.150;5.898;2023-05-27T08:38:54;11.25;;;2.95;;
53145;SDS011;39042;53.150;5.898;2023-05-27T08:41:25;15.50;;;3.40;;
53145;SDS011;39042;53.150;5.898;2023-05-27T08:43:53;11.00;;;2.80;;
53145;SDS011;39042;53.150;5.898;2023-05-27T08:46:19;15.95;;;3.13;;
53145;SDS011;39042;53.150;5.898;2023-05-27T08:48:47;16.10;;;3.60;;
53145;SDS011;39042;53.150;5.898;2023-05-27T08:51:15;13.88;;;3.40;;
53145;SDS011;39042;53.150;5.898;2023-05-27T08:53:44;16.73;;;3.95;;
53145;SDS011;39042;53.150;5.898;2023-05-27T08:56:12;14.57;;;3.78;;
53145;SDS011;39042;53.150;5.898;2023-05-27T08:58:44;13.88;;;3.65;;
53145;SDS011;39042;53.150;5.898;2023-05-27T09:01:10;16.88;;;3.33;;
53145;SDS011;39042;53.150;5.898;2023-05-27T09:03:37;12.98;;;3.53;;
53145;SDS011;39042;53.150;5.898;2023-05-27T09:06:04;12.65;;;3.22;;
53145;SDS011;39042;53.150;5.898;2023-05-27T09:08:30;13.88;;;2.53;;
53145;SDS011;39042;53.150;5.898;2023-05-27T09:10:56;17.02;;;3.58;;
53145;SDS011;39042;53.150;5.898;2023-05-27T09:13:29;12.60;;;2.83;;
53145;SDS011;39042;53.150;5.898;2023-05-27T09:15:59;13.77;;;3.78;;
53145;SDS011;39042;53.150;5.898;2023-05-27T09:18:29;13.65;;;3.78;;
53145;SDS011;39042;53.150;5.898;2023-05-27T09:20:56;13.80;;;3.58;;
53145;SDS011;39042;53.150;5.898;2023-05-27T09:23:22;13.27;;;3.75;;
53145;SDS011;39042;53.150;5.898;2023-05-27T09:25:48;10.07;;;3.53;;
53145;SDS011;39042;53.150;5.898;2023-05-27T09:28:21;16.88;;;3.22;;
53145;SDS011;39042;53.150;5.898;2023-05-27T09:31:04;13.77;;;2.90;;
53145;SDS011;39042;53.150;5.898;2023-05-27T09:33:32;13.73;;;3.92;;
53145;SDS011;39042;53.150;5.898;2023-05-27T09:36:00;18.23;;;4.05;;
53145;SDS011;39042;53.150;5.898;2023-05-27T09:38:30;10.63;;;2.88;;
53145;SDS011;39042;53.150;5.898;2023-05-27T09:40:57;16.92;;;3.65;;
53145;SDS011;39042;53.150;5.898;2023-05-27T09:43:24;15.80;;;3.25;;
53145;SDS011;39042;53.150;5.898;2023-05-27T09:45:58;11.93;;;3.28;;
53145;SDS011;39042;53.150;5.898;2023-05-27T09:48:29;12.77;;;3.35;;
53145;SDS011;39042;53.150;5.898;2023-05-27T09:50:56;15.65;;;4.13;;
53145;SDS011;39042;53.150;5.898;2023-05-27T09:53:23;16.15;;;3.55;;
53145;SDS011;39042;53.150;5.898;2023-05-27T09:55:52;16.35;;;4.05;;
53145;SDS011;39042;53.150;5.898;2023-05-27T09:58:19;15.15;;;4.47;;
53145;SDS011;39042;53.150;5.898;2023-05-27T10:00:47;11.73;;;3.58;;
53145;SDS011;39042;53.150;5.898;2023-05-27T10:03:15;13.60;;;4.28;;
53145;SDS011;39042;53.150;5.898;2023-05-27T10:05:42;14.27;;;4.20;;
53145;SDS011;39042;53.150;5.898;2023-05-27T10:08:10;14.85;;;4.28;;
53145;SDS011;39042;53.150;5.898;2023-05-27T10:10:38;15.98;;;4.85;;
53145;SDS011;39042;53.150;5.898;2023-05-27T10:13:04;15.13;;;4.40;;
53145;SDS011;39042;53.150;5.898;2023-05-27T10:15:31;16.95;;;4.18;;
53145;SDS011;39042;53.150;5.898;2023-05-27T10:18:04;11.50;;;3.80;;
53145;SDS011;39042;53.150;5.898;2023-05-27T10:20:38;14.38;;;3.65;;
53145;SDS011;39042;53.150;5.898;2023-05-27T10:23:13;13.98;;;3.40;;
53145;SDS011;39042;53.150;5.898;2023-05-27T10:26:00;14.48;;;4.20;;
53145;SDS011;39042;53.150;5.898;2023-05-27T10:28:30;12.88;;;4.35;;
53145;SDS011;39042;53.150;5.898;2023-05-27T10:33:30;17.35;;;4.85;;
53145;SDS011;39042;53.150;5.898;2023-05-27T10:36:15;14.63;;;4.88;;
53145;SDS011;39042;53.150;5.898;2023-05-27T10:38:56;18.05;;;5.53;;
53145;SDS011;39042;53.150;5.898;2023-05-27T10:41:24;15.52;;;4.43;;
53145;SDS011;39042;53.150;5.898;2023-05-27T10:43:57;12.80;;;4.03;;
53145;SDS011;39042;53.150;5.898;2023-05-27T10:46:24;17.25;;;4.35;;
53145;SDS011;39042;53.150;5.898;2023-05-27T10:48:50;13.27;;;5.28;;
53145;SDS011;39042;53.150;5.898;2023-05-27T10:51:15;18.45;;;6.10;;
53145;SDS011;39042;53.150;5.898;2023-05-27T10:53:41;13.18;;;4.43;;
53145;SDS011;39042;53.150;5.898;2023-05-27T10:56:07;11.82;;;4.28;;
53145;SDS011;39042;53.150;5.898;2023-05-27T10:58:34;16.38;;;4.90;;
53145;SDS011;39042;53.150;5.898;2023-05-27T11:01:11;13.18;;;4.13;;
53145;SDS011;39042;53.150;5.898;2023-05-27T11:03:43;13.88;;;4.70;;
53145;SDS011;39042;53.150;5.898;2023-05-27T11:06:14;18.25;;;5.25;;
53145;SDS011;39042;53.150;5.898;2023-05-27T11:08:42;17.70;;;4.90;;
53145;SDS011;39042;53.150;5.898;2023-05-27T11:11:08;14.90;;;5.10;;
53145;SDS011;39042;53.150;5.898;2023-05-27T11:13:36;13.75;;;4.28;;
53145;SDS011;39042;53.150;5.898;2023-05-27T11:16:07;15.35;;;4.40;;
53145;SDS011;39042;53.150;5.898;2023-05-27T11:21:03;16.67;;;4.82;;
53145;SDS011;39042;53.150;5.898;2023-05-27T11:23:34;16.58;;;5.63;;
53145;SDS011;39042;53.150;5.898;2023-05-27T11:26:02;16.77;;;5.20;;
53145;SDS011;39042;53.150;5.898;2023-05-27T11:28:28;18.35;;;5.38;;
53145;SDS011;39042;53.150;5.898;2023-05-27T11:30:59;19.98;;;5.38;;
53145;SDS011;39042;53.150;5.898;2023-05-27T11:33:34;17.15;;;5.63;;
53145;SDS011;39042;53.150;5.898;2023-05-27T11:36:04;16.58;;;4.75;;
53145;SDS011;39042;53.150;5.898;2023-05-27T11:38:56;15.88;;;4.95;;
53145;SDS011;39042;53.150;5.898;2023-05-27T11:41:24;14.13;;;4.63;;
53145;SDS011;39042;53.150;5.898;2023-05-27T11:43:57;16.17;;;5.18;;
53145;SDS011;39042;53.150;5.898;2023-05-27T11:46:33;14.43;;;5.57;;
53145;SDS011;39042;53.150;5.898;2023-05-27T11:48:59;17.67;;;5.70;;
53145;SDS011;39042;53.150;5.898;2023-05-27T11:51:28;20.38;;;5.57;;
53145;SDS011;39042;53.150;5.898;2023-05-27T11:53:55;16.17;;;5.43;;
53145;SDS011;39042;53.150;5.898;2023-05-27T11:56:23;17.27;;;6.47;;
53145;SDS011;39042;53.150;5.898;2023-05-27T11:58:50;19.33;;;6.03;;
53145;SDS011;39042;53.150;5.898;2023-05-27T12:01:16;18.00;;;5.85;;
53145;SDS011;39042;53.150;5.898;2023-05-27T12:03:42;16.90;;;6.05;;
53145;SDS011;39042;53.150;5.898;2023-05-27T12:06:08;20.70;;;6.55;;
53145;SDS011;39042;53.150;5.898;2023-05-27T12:08:34;17.38;;;5.97;;
53145;SDS011;39042;53.150;5.898;2023-05-27T12:11:00;16.05;;;6.28;;
53145;SDS011;39042;53.150;5.898;2023-05-27T12:13:26;15.13;;;5.47;;
53145;SDS011;39042;53.150;5.898;2023-05-27T12:15:54;20.67;;;6.10;;
53145;SDS011;39042;53.150;5.898;2023-05-27T12:18:20;18.45;;;6.05;;
53145;SDS011;39042;53.150;5.898;2023-05-27T12:20:46;17.80;;;6.50;;
53145;SDS011;39042;53.150;5.898;2023-05-27T12:23:11;17.13;;;6.57;;
53145;SDS011;39042;53.150;5.898;2023-05-27T12:25:37;18.25;;;6.72;;
53145;SDS011;39042;53.150;5.898;2023-05-27T12:28:05;19.13;;;5.97;;
53145;SDS011;39042;53.150;5.898;2023-05-27T12:30:32;16.45;;;6.32;;
53145;SDS011;39042;53.150;5.898;2023-05-27T12:32:58;15.85;;;5.70;;
53145;SDS011;39042;53.150;5.898;2023-05-27T12:35:24;16.88;;;6.07;;
53145;SDS011;39042;53.150;5.898;2023-05-27T12:37:50;16.10;;;6.18;;
53145;SDS011;39042;53.150;5.898;2023-05-27T12:42:43;13.40;;;5.40;;
53145;SDS011;39042;53.150;5.898;2023-05-27T12:45:09;14.60;;;5.35;;
53145;SDS011;39042;53.150;5.898;2023-05-27T12:47:36;14.30;;;5.80;;
53145;SDS011;39042;53.150;5.898;2023-05-27T12:50:02;16.38;;;5.53;;
53145;SDS011;39042;53.150;5.898;2023-05-27T12:52:29;13.70;;;5.75;;
53145;SDS011;39042;53.150;5.898;2023-05-27T12:57:22;14.00;;;5.53;;
53145;SDS011;39042;53.150;5.898;2023-05-27T12:59:48;14.73;;;6.30;;
53145;SDS011;39042;53.150;5.898;2023-05-27T13:02:14;9.45;;;4.93;;
53145;SDS011;39042;53.150;5.898;2023-05-27T13:04:40;14.88;;;5.10;;
53145;SDS011;39042;53.150;5.898;2023-05-27T13:07:09;15.07;;;5.32;;
53145;SDS011;39042;53.150;5.898;2023-05-27T13:09:37;14.52;;;5.57;;
53145;SDS011;39042;53.150;5.898;2023-05-27T13:12:03;17.35;;;4.72;;
53145;SDS011;39042;53.150;5.898;2023-05-27T13:14:29;14.15;;;4.47;;
53145;SDS011;39042;53.150;5.898;2023-05-27T13:16:55;16.30;;;5.18;;
53145;SDS011;39042;53.150;5.898;2023-05-27T13:19:21;14.57;;;5.20;;
53145;SDS011;39042;53.150;5.898;2023-05-27T13:21:48;12.45;;;5.45;;
53145;SDS011;39042;53.150;5.898;2023-05-27T13:24:14;17.15;;;5.43;;
53145;SDS011;39042;53.150;5.898;2023-05-27T13:26:40;17.13;;;5.90;;
53145;SDS011;39042;53.150;5.898;2023-05-27T13:29:05;17.98;;;5.10;;
53145;SDS011;39042;53.150;5.898;2023-05-27T13:31:32;13.38;;;5.05;;
53145;SDS011;39042;53.150;5.898;2023-05-27T13:33:58;13.13;;;4.95;;
53145;SDS011;39042;53.150;5.898;2023-05-27T13:36:24;15.05;;;4.22;;
53145;SDS011;39042;53.150;5.898;2023-05-27T13:38:50;16.45;;;3.78;;
53145;SDS011;39042;53.150;5.898;2023-05-27T13:41:15;15.50;;;4.90;;
53145;SDS011;39042;53.150;5.898;2023-05-27T13:43:41;15.60;;;4.90;;
53145;SDS011;39042;53.150;5.898;2023-05-27T13:46:07;16.35;;;4.60;;
53145;SDS011;39042;53.150;5.898;2023-05-27T13:48:33;12.30;;;3.60;;
53145;SDS011;39042;53.150;5.898;2023-05-27T13:50:59;14.88;;;4.68;;
53145;SDS011;39042;53.150;5.898;2023-05-27T13:53:24;16.48;;;4.65;;
53145;SDS011;39042;53.150;5.898;2023-05-27T13:55:50;16.20;;;3.95;;
53145;SDS011;39042;53.150;5.898;2023-05-27T13:58:17;15.85;;;4.25;;
53145;SDS011;39042;53.150;5.898;2023-05-27T14:00:43;18.17;;;5.05;;
53145;SDS011;39042;53.150;5.898;2023-05-27T14:03:09;12.80;;;4.07;;
53145;SDS011;39042;53.150;5.898;2023-05-27T14:05:35;13.73;;;3.97;;
53145;SDS011;39042;53.150;5.898;2023-05-27T14:08:04;19.67;;;4.57;;
53145;SDS011;39042;53.150;5.898;2023-05-27T14:10:31;17.63;;;4.45;;
53145;SDS011;39042;53.150;5.898;2023-05-27T14:12:58;17.20;;;4.05;;
53145;SDS011;39042;53.150;5.898;2023-05-27T14:15:24;17.50;;;4.47;;
53145;SDS011;39042;53.150;5.898;2023-05-27T14:17:53;15.27;;;4.88;;
53145;SDS011;39042;53.150;5.898;2023-05-27T14:20:20;16.38;;;3.63;;
53145;SDS011;39042;53.150;5.898;2023-05-27T14:25:13;13.30;;;4.22;;
53145;SDS011;39042;53.150;5.898;2023-05-27T14:27:40;22.88;;;4.70;;
53145;SDS011;39042;53.150;5.898;2023-05-27T14:30:06;16.45;;;3.78;;
53145;SDS011;39042;53.150;5.898;2023-05-27T14:34:58;15.77;;;4.40;;
53145;SDS011;39042;53.150;5.898;2023-05-27T14:37:24;19.38;;;5.15;;
53145;SDS011;39042;53.150;5.898;2023-05-27T14:39:53;19.70;;;4.78;;
53145;SDS011;39042;53.150;5.898;2023-05-27T14:42:19;18.77;;;3.92;;
53145;SDS011;39042;53.150;5.898;2023-05-27T14:47:11;18.42;;;4.28;;
53145;SDS011;39042;53.150;5.898;2023-05-27T14:49:37;21.20;;;4.30;;
53145;SDS011;39042;53.150;5.898;2023-05-27T14:52:03;17.65;;;4.90;;
53145;SDS011;39042;53.150;5.898;2023-05-27T14:54:29;16.13;;;4.07;;
53145;SDS011;39042;53.150;5.898;2023-05-27T14:56:55;18.50;;;4.50;;
53145;SDS011;39042;53.150;5.898;2023-05-27T14:59:22;18.23;;;4.38;;
53145;SDS011;39042;53.150;5.898;2023-05-27T15:01:48;14.98;;;4.28;;
53145;SDS011;39042;53.150;5.898;2023-05-27T15:04:14;16.38;;;4.78;;
53145;SDS011;39042;53.150;5.898;2023-05-27T15:06:40;19.38;;;4.50;;
53145;SDS011;39042;53.150;5.898;2023-05-27T15:09:06;19.45;;;4.40;;
53145;SDS011;39042;53.150;5.898;2023-05-27T15:11:33;18.33;;;4.40;;
53145;SDS011;39042;53.150;5.898;2023-05-27T15:14:01;20.10;;;5.28;;
53145;SDS011;39042;53.150;5.898;2023-05-27T15:16:27;20.98;;;4.57;;
53145;SDS011;39042;53.150;5.898;2023-05-27T15:18:53;14.90;;;4.95;;
53145;SDS011;39042;53.150;5.898;2023-05-27T15:21:19;18.60;;;5.00;;
53145;SDS011;39042;53.150;5.898;2023-05-27T15:23:45;20.48;;;4.65;;